sensor_id;sensor_type;location;lat;lon;timestamp;P1;durP1;ratioP1;P2;durP2;ratioP2
11267;SDS011;49397;47.474;9.416;2023-08-06T00:01:47;3.67;;;3.37;;
11267;SDS011;49397;47.474;9.416;2023-08-06T00:04:13;3.90;;;3.30;;
11267;SDS011;49397;47.474;9.416;2023-08-06T00:06:38;3.77;;;3.47;;
11267;SDS011;49397;47.474;9.416;2023-08-06T00:09:03;3.43;;;3.13;;
11267;SDS011;49397;47.474;9.416;2023-08-06T00:11:29;4.50;;;3.93;;
11267;SDS011;49397;47.474;9.416;2023-08-06T00:13:54;4.17;;;3.53;;
11267;SDS011;49397;47.474;9.416;2023-08-06T00:16:19;3.67;;;3.37;;
11267;SDS011;49397;47.474;9.416;2023-08-06T00:18:45;3.60;;;3.40;;
11267;SDS011;49397;47.474;9.416;2023-08-06T00:21:10;3.80;;;3.50;;
11267;SDS011;49397;47.474;9.416;2023-08-06T00:23:37;4.00;;;3.20;;
11267;SDS011;49397;47.474;9.416;2023-08-06T00:26:02;3.60;;;3.30;;
11267;SDS011;49397;47.474;9.416;2023-08-06T00:28:28;3.47;;;3.17;;
11267;SDS011;49397;47.474;9.416;2023-08-06T00:30:54;4.23;;;3.43;;
11267;SDS011;49397;47.474;9.416;2023-08-06T00:33:20;3.70;;;3.40;;
11267;SDS011;49397;47.474;9.416;2023-08-06T00:35:46;3.70;;;3.40;;
11267;SDS011;49397;47.474;9.416;2023-08-06T00:38:12;3.93;;;3.63;;
11267;SDS011;49397;47.474;9.416;2023-08-06T00:40:37;5.10;;;3.47;;
11267;SDS011;49397;47.474;9.416;2023-08-06T00:43:02;3.73;;;3.43;;
11267;SDS011;49397;47.474;9.416;2023-08-06T00:45:28;3.53;;;3.23;;
11267;SDS011;49397;47.474;9.416;2023-08-06T00:47:55;2.73;;;2.53;;
11267;SDS011;49397;47.474;9.416;2023-08-06T00:50:20;3.53;;;3.20;;
11267;SDS011;49397;47.474;9.416;2023-08-06T00:52:48;3.53;;;3.23;;
11267;SDS011;49397;47.474;9.416;2023-08-06T00:55:13;3.07;;;2.87;;
11267;SDS011;49397;47.474;9.416;2023-08-06T00:57:40;3.27;;;2.97;;
11267;SDS011;49397;47.474;9.416;2023-08-06T01:00:06;3.63;;;3.33;;
11267;SDS011;49397;47.474;9.416;2023-08-06T01:02:32;4.43;;;3.37;;
11267;SDS011;49397;47.474;9.416;2023-08-06T01:04:57;2.90;;;2.70;;
11267;SDS011;49397;47.474;9.416;2023-08-06T01:10:23;2.87;;;2.67;;
11267;SDS011;49397;47.474;9.416;2023-08-06T01:16:05;5.20;;;3.40;;
11267;SDS011;49397;47.474;9.416;2023-08-06T01:18:31;3.33;;;2.73;;
11267;SDS011;49397;47.474;9.416;2023-08-06T01:20:57;3.17;;;2.97;;
11267;SDS011;49397;47.474;9.416;2023-08-06T01:23:22;3.10;;;2.90;;
11267;SDS011;49397;47.474;9.416;2023-08-06T01:25:51;3.60;;;3.30;;
11267;SDS011;49397;47.474;9.416;2023-08-06T01:31:13;3.50;;;3.20;;
11267;SDS011;49397;47.474;9.416;2023-08-06T01:33:43;3.43;;;3.17;;
11267;SDS011;49397;47.474;9.416;2023-08-06T01:36:12;3.20;;;3.00;;
11267;SDS011;49397;47.474;9.416;2023-08-06T01:38:37;4.63;;;3.00;;
11267;SDS011;49397;47.474;9.416;2023-08-06T01:41:03;3.60;;;3.30;;
11267;SDS011;49397;47.474;9.416;2023-08-06T01:43:28;3.80;;;3.43;;
11267;SDS011;49397;47.474;9.416;2023-08-06T01:45:53;3.70;;;3.40;;
11267;SDS011;49397;47.474;9.416;2023-08-06T01:48:19;5.40;;;3.27;;
11267;SDS011;49397;47.474;9.416;2023-08-06T01:50:44;3.13;;;2.90;;
11267;SDS011;49397;47.474;9.416;2023-08-06T01:53:09;3.77;;;2.87;;
11267;SDS011;49397;47.474;9.416;2023-08-06T01:55:35;5.40;;;3.40;;
11267;SDS011;49397;47.474;9.416;2023-08-06T01:58:00;4.60;;;3.80;;
11267;SDS011;49397;47.474;9.416;2023-08-06T02:00:29;3.03;;;2.83;;
11267;SDS011;49397;47.474;9.416;2023-08-06T02:02:54;3.40;;;3.20;;
11267;SDS011;49397;47.474;9.416;2023-08-06T02:05:19;4.70;;;3.33;;
11267;SDS011;49397;47.474;9.416;2023-08-06T02:07:45;3.30;;;3.03;;
11267;SDS011;49397;47.474;9.416;2023-08-06T02:10:10;3.40;;;3.10;;
11267;SDS011;49397;47.474;9.416;2023-08-06T02:12:36;3.67;;;3.37;;
11267;SDS011;49397;47.474;9.416;2023-08-06T02:15:01;3.33;;;3.13;;
11267;SDS011;49397;47.474;9.416;2023-08-06T02:17:27;3.47;;;3.23;;
11267;SDS011;49397;47.474;9.416;2023-08-06T02:19:52;3.20;;;3.00;;
11267;SDS011;49397;47.474;9.416;2023-08-06T02:22:17;5.17;;;3.00;;
11267;SDS011;49397;47.474;9.416;2023-08-06T02:24:43;3.37;;;3.07;;
11267;SDS011;49397;47.474;9.416;2023-08-06T02:27:08;3.77;;;3.47;;
11267;SDS011;49397;47.474;9.416;2023-08-06T02:29:34;3.20;;;2.90;;
11267;SDS011;49397;47.474;9.416;2023-08-06T02:31:59;4.53;;;3.17;;
11267;SDS011;49397;47.474;9.416;2023-08-06T02:34:26;3.90;;;3.47;;
11267;SDS011;49397;47.474;9.416;2023-08-06T02:36:52;3.73;;;3.43;;
11267;SDS011;49397;47.474;9.416;2023-08-06T02:39:17;2.80;;;2.60;;
11267;SDS011;49397;47.474;9.416;2023-08-06T02:41:42;2.97;;;2.67;;
11267;SDS011;49397;47.474;9.416;2023-08-06T02:44:08;3.20;;;2.90;;
11267;SDS011;49397;47.474;9.416;2023-08-06T02:46:33;3.40;;;3.17;;
11267;SDS011;49397;47.474;9.416;2023-08-06T02:48:58;3.23;;;2.93;;
11267;SDS011;49397;47.474;9.416;2023-08-06T02:51:24;3.03;;;2.60;;
11267;SDS011;49397;47.474;9.416;2023-08-06T02:53:49;3.43;;;3.13;;
11267;SDS011;49397;47.474;9.416;2023-08-06T02:56:14;2.77;;;2.57;;
11267;SDS011;49397;47.474;9.416;2023-08-06T02:58:40;3.20;;;2.67;;
11267;SDS011;49397;47.474;9.416;2023-08-06T03:01:06;3.10;;;2.90;;
11267;SDS011;49397;47.474;9.416;2023-08-06T03:03:32;3.17;;;2.90;;
11267;SDS011;49397;47.474;9.416;2023-08-06T03:05:58;3.67;;;3.03;;
11267;SDS011;49397;47.474;9.416;2023-08-06T03:08:23;2.77;;;2.57;;
11267;SDS011;49397;47.474;9.416;2023-08-06T03:10:49;3.00;;;2.80;;
11267;SDS011;49397;47.474;9.416;2023-08-06T03:13:18;3.73;;;3.17;;
11267;SDS011;49397;47.474;9.416;2023-08-06T03:15:54;2.97;;;2.77;;
11267;SDS011;49397;47.474;9.416;2023-08-06T03:18:24;3.33;;;2.83;;
11267;SDS011;49397;47.474;9.416;2023-08-06T03:20:51;3.13;;;2.83;;
11267;SDS011;49397;47.474;9.416;2023-08-06T03:23:16;4.33;;;2.70;;
11267;SDS011;49397;47.474;9.416;2023-08-06T03:25:42;3.70;;;2.20;;
11267;SDS011;49397;47.474;9.416;2023-08-06T03:28:07;2.73;;;2.50;;
11267;SDS011;49397;47.474;9.416;2023-08-06T03:30:33;4.40;;;2.30;;
11267;SDS011;49397;47.474;9.416;2023-08-06T03:32:58;2.77;;;2.57;;
11267;SDS011;49397;47.474;9.416;2023-08-06T03:35:23;3.57;;;2.57;;
11267;SDS011;49397;47.474;9.416;2023-08-06T03:37:49;2.80;;;2.60;;
11267;SDS011;49397;47.474;9.416;2023-08-06T03:40:15;3.13;;;2.27;;
11267;SDS011;49397;47.474;9.416;2023-08-06T03:42:40;2.60;;;2.40;;
11267;SDS011;49397;47.474;9.416;2023-08-06T03:45:06;2.77;;;2.30;;
11267;SDS011;49397;47.474;9.416;2023-08-06T03:47:32;3.20;;;2.90;;
11267;SDS011;49397;47.474;9.416;2023-08-06T03:49:57;2.00;;;1.90;;
11267;SDS011;49397;47.474;9.416;2023-08-06T03:52:23;2.50;;;2.30;;
11267;SDS011;49397;47.474;9.416;2023-08-06T03:54:48;3.00;;;2.63;;
11267;SDS011;49397;47.474;9.416;2023-08-06T03:57:13;2.50;;;2.20;;
11267;SDS011;49397;47.474;9.416;2023-08-06T03:59:39;2.03;;;1.93;;
11267;SDS011;49397;47.474;9.416;2023-08-06T04:02:04;2.83;;;2.50;;
11267;SDS011;49397;47.474;9.416;2023-08-06T04:04:30;2.80;;;2.60;;
11267;SDS011;49397;47.474;9.416;2023-08-06T04:06:55;3.03;;;2.50;;
11267;SDS011;49397;47.474;9.416;2023-08-06T04:09:20;2.47;;;2.27;;
11267;SDS011;49397;47.474;9.416;2023-08-06T04:11:46;2.70;;;2.50;;
11267;SDS011;49397;47.474;9.416;2023-08-06T04:14:11;2.27;;;2.17;;
11267;SDS011;49397;47.474;9.416;2023-08-06T04:16:36;3.80;;;2.30;;
11267;SDS011;49397;47.474;9.416;2023-08-06T04:19:02;2.97;;;2.37;;
11267;SDS011;49397;47.474;9.416;2023-08-06T04:21:27;2.80;;;2.60;;
11267;SDS011;49397;47.474;9.416;2023-08-06T04:23:52;2.80;;;2.60;;
11267;SDS011;49397;47.474;9.416;2023-08-06T04:26:18;2.63;;;2.30;;
11267;SDS011;49397;47.474;9.416;2023-08-06T04:28:43;2.60;;;2.40;;
11267;SDS011;49397;47.474;9.416;2023-08-06T04:31:09;2.40;;;2.30;;
11267;SDS011;49397;47.474;9.416;2023-08-06T04:33:34;3.03;;;2.80;;
11267;SDS011;49397;47.474;9.416;2023-08-06T04:35:59;2.67;;;2.10;;
11267;SDS011;49397;47.474;9.416;2023-08-06T04:38:25;2.27;;;2.07;;
11267;SDS011;49397;47.474;9.416;2023-08-06T04:40:51;3.30;;;3.00;;
11267;SDS011;49397;47.474;9.416;2023-08-06T04:43:16;3.10;;;1.97;;
11267;SDS011;49397;47.474;9.416;2023-08-06T04:45:54;2.10;;;1.93;;
11267;SDS011;49397;47.474;9.416;2023-08-06T04:48:21;1.87;;;1.77;;
11267;SDS011;49397;47.474;9.416;2023-08-06T04:50:47;2.70;;;2.30;;
11267;SDS011;49397;47.474;9.416;2023-08-06T04:53:14;2.23;;;2.03;;
11267;SDS011;49397;47.474;9.416;2023-08-06T04:55:40;2.30;;;2.10;;
11267;SDS011;49397;47.474;9.416;2023-08-06T04:58:06;2.20;;;2.00;;
11267;SDS011;49397;47.474;9.416;2023-08-06T05:00:33;2.37;;;2.17;;
11267;SDS011;49397;47.474;9.416;2023-08-06T05:03:01;2.33;;;2.10;;
11267;SDS011;49397;47.474;9.416;2023-08-06T05:05:27;3.13;;;2.23;;
11267;SDS011;49397;47.474;9.416;2023-08-06T05:07:53;2.60;;;2.40;;
11267;SDS011;49397;47.474;9.416;2023-08-06T05:10:19;2.60;;;2.13;;
11267;SDS011;49397;47.474;9.416;2023-08-06T05:12:44;4.50;;;2.37;;
11267;SDS011;49397;47.474;9.416;2023-08-06T05:15:10;2.30;;;2.10;;
11267;SDS011;49397;47.474;9.416;2023-08-06T05:17:35;2.47;;;2.27;;
11267;SDS011;49397;47.474;9.416;2023-08-06T05:20:00;2.10;;;1.90;;
11267;SDS011;49397;47.474;9.416;2023-08-06T05:22:26;2.63;;;2.43;;
11267;SDS011;49397;47.474;9.416;2023-08-06T05:24:51;3.63;;;2.43;;
11267;SDS011;49397;47.474;9.416;2023-08-06T05:27:17;2.87;;;2.07;;
11267;SDS011;49397;47.474;9.416;2023-08-06T05:29:44;3.70;;;2.03;;
11267;SDS011;49397;47.474;9.416;2023-08-06T05:32:10;2.80;;;1.90;;
11267;SDS011;49397;47.474;9.416;2023-08-06T05:34:35;2.50;;;1.97;;
11267;SDS011;49397;47.474;9.416;2023-08-06T05:37:00;2.87;;;1.83;;
11267;SDS011;49397;47.474;9.416;2023-08-06T05:39:26;1.70;;;1.60;;
11267;SDS011;49397;47.474;9.416;2023-08-06T05:41:51;2.50;;;2.00;;
11267;SDS011;49397;47.474;9.416;2023-08-06T05:44:17;9.20;;;2.10;;
11267;SDS011;49397;47.474;9.416;2023-08-06T05:46:43;1.90;;;1.80;;
11267;SDS011;49397;47.474;9.416;2023-08-06T05:49:08;2.00;;;1.80;;
11267;SDS011;49397;47.474;9.416;2023-08-06T05:51:33;1.90;;;1.80;;
11267;SDS011;49397;47.474;9.416;2023-08-06T05:53:59;2.20;;;1.70;;
11267;SDS011;49397;47.474;9.416;2023-08-06T05:56:24;1.50;;;1.40;;
11267;SDS011;49397;47.474;9.416;2023-08-06T05:58:49;1.60;;;1.60;;
11267;SDS011;49397;47.474;9.416;2023-08-06T06:01:18;1.97;;;1.57;;
11267;SDS011;49397;47.474;9.416;2023-08-06T06:03:43;1.60;;;1.50;;
11267;SDS011;49397;47.474;9.416;2023-08-06T06:06:08;1.70;;;1.60;;
11267;SDS011;49397;47.474;9.416;2023-08-06T06:08:34;1.73;;;1.63;;
11267;SDS011;49397;47.474;9.416;2023-08-06T06:10:59;1.80;;;1.80;;
11267;SDS011;49397;47.474;9.416;2023-08-06T06:13:25;1.47;;;1.43;;
11267;SDS011;49397;47.474;9.416;2023-08-06T06:15:50;2.00;;;1.90;;
11267;SDS011;49397;47.474;9.416;2023-08-06T06:18:19;1.80;;;1.70;;
11267;SDS011;49397;47.474;9.416;2023-08-06T06:20:45;1.77;;;1.67;;
11267;SDS011;49397;47.474;9.416;2023-08-06T06:23:10;1.90;;;1.80;;
11267;SDS011;49397;47.474;9.416;2023-08-06T06:25:35;2.90;;;1.93;;
11267;SDS011;49397;47.474;9.416;2023-08-06T06:28:01;1.50;;;1.40;;
11267;SDS011;49397;47.474;9.416;2023-08-06T06:30:26;4.30;;;1.70;;
11267;SDS011;49397;47.474;9.416;2023-08-06T06:32:51;2.83;;;1.50;;
11267;SDS011;49397;47.474;9.416;2023-08-06T06:35:17;3.00;;;1.83;;
11267;SDS011;49397;47.474;9.416;2023-08-06T06:37:42;1.70;;;1.60;;
11267;SDS011;49397;47.474;9.416;2023-08-06T06:40:08;2.20;;;1.93;;
11267;SDS011;49397;47.474;9.416;2023-08-06T06:42:33;1.60;;;1.60;;
11267;SDS011;49397;47.474;9.416;2023-08-06T06:44:58;1.97;;;1.80;;
11267;SDS011;49397;47.474;9.416;2023-08-06T06:47:24;3.60;;;1.60;;
11267;SDS011;49397;47.474;9.416;2023-08-06T06:49:49;2.00;;;1.90;;
11267;SDS011;49397;47.474;9.416;2023-08-06T06:52:14;1.87;;;1.80;;
11267;SDS011;49397;47.474;9.416;2023-08-06T06:54:40;1.70;;;1.60;;
11267;SDS011;49397;47.474;9.416;2023-08-06T06:57:05;1.60;;;1.50;;
11267;SDS011;49397;47.474;9.416;2023-08-06T06:59:31;1.70;;;1.60;;
11267;SDS011;49397;47.474;9.416;2023-08-06T07:01:56;2.20;;;1.60;;
11267;SDS011;49397;47.474;9.416;2023-08-06T07:04:21;2.93;;;1.60;;
11267;SDS011;49397;47.474;9.416;2023-08-06T07:06:47;1.43;;;1.43;;
11267;SDS011;49397;47.474;9.416;2023-08-06T07:09:12;2.20;;;1.50;;
11267;SDS011;49397;47.474;9.416;2023-08-06T07:11:38;1.50;;;1.40;;
11267;SDS011;49397;47.474;9.416;2023-08-06T07:14:03;1.53;;;1.47;;
11267;SDS011;49397;47.474;9.416;2023-08-06T07:16:28;1.40;;;1.40;;
11267;SDS011;49397;47.474;9.416;2023-08-06T07:18:54;1.33;;;1.33;;
11267;SDS011;49397;47.474;9.416;2023-08-06T07:21:20;1.60;;;1.50;;
11267;SDS011;49397;47.474;9.416;2023-08-06T07:23:45;1.53;;;1.50;;
11267;SDS011;49397;47.474;9.416;2023-08-06T07:26:11;3.00;;;1.30;;
11267;SDS011;49397;47.474;9.416;2023-08-06T07:28:36;1.43;;;1.43;;
11267;SDS011;49397;47.474;9.416;2023-08-06T07:31:02;1.50;;;1.40;;
11267;SDS011;49397;47.474;9.416;2023-08-06T07:33:28;1.90;;;1.80;;
11267;SDS011;49397;47.474;9.416;2023-08-06T07:35:53;1.40;;;1.40;;
11267;SDS011;49397;47.474;9.416;2023-08-06T07:38:19;3.07;;;1.50;;
11267;SDS011;49397;47.474;9.416;2023-08-06T07:40:44;1.57;;;1.47;;
11267;SDS011;49397;47.474;9.416;2023-08-06T07:43:10;1.97;;;1.30;;
11267;SDS011;49397;47.474;9.416;2023-08-06T07:45:35;1.60;;;1.50;;
11267;SDS011;49397;47.474;9.416;2023-08-06T07:48:01;1.70;;;1.60;;
11267;SDS011;49397;47.474;9.416;2023-08-06T07:50:27;4.43;;;1.80;;
11267;SDS011;49397;47.474;9.416;2023-08-06T07:52:52;1.47;;;1.33;;
11267;SDS011;49397;47.474;9.416;2023-08-06T07:55:18;1.47;;;1.47;;
11267;SDS011;49397;47.474;9.416;2023-08-06T07:57:43;1.53;;;1.43;;
11267;SDS011;49397;47.474;9.416;2023-08-06T08:00:08;1.60;;;1.50;;
11267;SDS011;49397;47.474;9.416;2023-08-06T08:02:34;1.60;;;1.50;;
11267;SDS011;49397;47.474;9.416;2023-08-06T08:05:00;1.37;;;1.30;;
11267;SDS011;49397;47.474;9.416;2023-08-06T08:07:25;1.50;;;1.40;;
11267;SDS011;49397;47.474;9.416;2023-08-06T08:09:53;1.70;;;1.60;;
11267;SDS011;49397;47.474;9.416;2023-08-06T08:12:19;2.30;;;1.80;;
11267;SDS011;49397;47.474;9.416;2023-08-06T08:14:44;1.50;;;1.40;;
11267;SDS011;49397;47.474;9.416;2023-08-06T08:17:10;1.40;;;1.30;;
11267;SDS011;49397;47.474;9.416;2023-08-06T08:19:36;1.90;;;1.60;;
11267;SDS011;49397;47.474;9.416;2023-08-06T08:22:01;1.33;;;1.23;;
11267;SDS011;49397;47.474;9.416;2023-08-06T08:24:27;1.60;;;1.50;;
11267;SDS011;49397;47.474;9.416;2023-08-06T08:26:52;1.70;;;1.60;;
11267;SDS011;49397;47.474;9.416;2023-08-06T08:29:21;1.30;;;1.30;;
11267;SDS011;49397;47.474;9.416;2023-08-06T08:31:47;3.53;;;1.50;;
11267;SDS011;49397;47.474;9.416;2023-08-06T08:34:14;1.77;;;1.53;;
11267;SDS011;49397;47.474;9.416;2023-08-06T08:36:42;1.77;;;1.70;;
11267;SDS011;49397;47.474;9.416;2023-08-06T08:39:08;1.50;;;1.40;;
11267;SDS011;49397;47.474;9.416;2023-08-06T08:41:34;3.57;;;1.40;;
11267;SDS011;49397;47.474;9.416;2023-08-06T08:44:01;2.30;;;1.67;;
11267;SDS011;49397;47.474;9.416;2023-08-06T08:46:29;1.93;;;1.67;;
11267;SDS011;49397;47.474;9.416;2023-08-06T08:48:56;2.33;;;1.70;;
11267;SDS011;49397;47.474;9.416;2023-08-06T08:51:24;1.43;;;1.33;;
11267;SDS011;49397;47.474;9.416;2023-08-06T08:53:52;1.63;;;1.53;;
11267;SDS011;49397;47.474;9.416;2023-08-06T08:56:21;1.30;;;1.30;;
11267;SDS011;49397;47.474;9.416;2023-08-06T08:58:46;1.33;;;1.30;;
11267;SDS011;49397;47.474;9.416;2023-08-06T09:01:13;1.70;;;1.60;;
11267;SDS011;49397;47.474;9.416;2023-08-06T09:03:40;1.40;;;1.30;;
11267;SDS011;49397;47.474;9.416;2023-08-06T09:06:06;2.20;;;1.60;;
11267;SDS011;49397;47.474;9.416;2023-08-06T09:08:34;1.23;;;1.23;;
11267;SDS011;49397;47.474;9.416;2023-08-06T09:11:03;1.40;;;1.30;;
11267;SDS011;49397;47.474;9.416;2023-08-06T09:13:30;1.30;;;1.30;;
11267;SDS011;49397;47.474;9.416;2023-08-06T09:15:55;2.57;;;1.50;;
11267;SDS011;49397;47.474;9.416;2023-08-06T09:18:27;1.40;;;1.40;;
11267;SDS011;49397;47.474;9.416;2023-08-06T09:20:55;1.40;;;1.30;;
11267;SDS011;49397;47.474;9.416;2023-08-06T09:23:27;1.27;;;1.27;;
11267;SDS011;49397;47.474;9.416;2023-08-06T09:25:54;1.60;;;1.40;;
11267;SDS011;49397;47.474;9.416;2023-08-06T09:28:20;1.30;;;1.30;;
11267;SDS011;49397;47.474;9.416;2023-08-06T09:30:46;1.87;;;1.20;;
11267;SDS011;49397;47.474;9.416;2023-08-06T09:33:14;1.23;;;1.23;;
11267;SDS011;49397;47.474;9.416;2023-08-06T09:35:43;1.53;;;1.53;;
11267;SDS011;49397;47.474;9.416;2023-08-06T09:38:10;1.50;;;1.40;;
11267;SDS011;49397;47.474;9.416;2023-08-06T09:40:36;1.30;;;1.30;;
11267;SDS011;49397;47.474;9.416;2023-08-06T09:43:02;3.20;;;1.30;;
11267;SDS011;49397;47.474;9.416;2023-08-06T09:45:29;1.17;;;1.17;;
11267;SDS011;49397;47.474;9.416;2023-08-06T09:48:05;1.30;;;1.30;;
11267;SDS011;49397;47.474;9.416;2023-08-06T09:50:32;1.30;;;1.30;;
11267;SDS011;49397;47.474;9.416;2023-08-06T09:52:59;1.40;;;1.40;;
11267;SDS011;49397;47.474;9.416;2023-08-06T09:55:26;1.60;;;1.50;;
11267;SDS011;49397;47.474;9.416;2023-08-06T09:57:52;1.33;;;1.33;;
11267;SDS011;49397;47.474;9.416;2023-08-06T10:00:18;1.30;;;1.30;;
11267;SDS011;49397;47.474;9.416;2023-08-06T10:02:43;1.90;;;1.20;;
11267;SDS011;49397;47.474;9.416;2023-08-06T10:05:10;1.63;;;1.30;;
11267;SDS011;49397;47.474;9.416;2023-08-06T10:07:36;1.30;;;1.30;;
11267;SDS011;49397;47.474;9.416;2023-08-06T10:10:04;1.30;;;1.30;;
11267;SDS011;49397;47.474;9.416;2023-08-06T10:12:31;1.40;;;1.40;;
11267;SDS011;49397;47.474;9.416;2023-08-06T10:15:00;1.20;;;1.20;;
11267;SDS011;49397;47.474;9.416;2023-08-06T10:17:29;2.63;;;1.30;;
11267;SDS011;49397;47.474;9.416;2023-08-06T10:19:56;1.27;;;1.27;;
11267;SDS011;49397;47.474;9.416;2023-08-06T10:22:23;1.70;;;1.40;;
11267;SDS011;49397;47.474;9.416;2023-08-06T10:24:50;1.27;;;1.20;;
11267;SDS011;49397;47.474;9.416;2023-08-06T10:27:33;1.27;;;1.13;;
11267;SDS011;49397;47.474;9.416;2023-08-06T10:32:49;1.17;;;1.17;;
11267;SDS011;49397;47.474;9.416;2023-08-06T10:40:48;1.30;;;1.30;;
11267;SDS011;49397;47.474;9.416;2023-08-06T10:45:55;1.30;;;1.30;;
11267;SDS011;49397;47.474;9.416;2023-08-06T10:51:01;1.40;;;1.40;;
11267;SDS011;49397;47.474;9.416;2023-08-06T10:53:27;1.70;;;1.70;;
11267;SDS011;49397;47.474;9.416;2023-08-06T10:55:52;1.40;;;1.40;;
11267;SDS011;49397;47.474;9.416;2023-08-06T10:58:18;1.30;;;1.30;;
11267;SDS011;49397;47.474;9.416;2023-08-06T11:00:43;1.37;;;1.30;;
11267;SDS011;49397;47.474;9.416;2023-08-06T11:03:09;1.10;;;1.10;;
11267;SDS011;49397;47.474;9.416;2023-08-06T11:05:35;1.67;;;1.57;;
11267;SDS011;49397;47.474;9.416;2023-08-06T11:08:00;1.60;;;1.50;;
11267;SDS011;49397;47.474;9.416;2023-08-06T11:10:26;1.10;;;1.10;;
11267;SDS011;49397;47.474;9.416;2023-08-06T11:12:51;1.57;;;1.47;;
11267;SDS011;49397;47.474;9.416;2023-08-06T11:15:17;1.37;;;1.37;;
11267;SDS011;49397;47.474;9.416;2023-08-06T11:17:42;4.97;;;1.43;;
11267;SDS011;49397;47.474;9.416;2023-08-06T11:20:08;2.77;;;2.27;;
11267;SDS011;49397;47.474;9.416;2023-08-06T11:22:35;1.30;;;1.30;;
11267;SDS011;49397;47.474;9.416;2023-08-06T11:25:01;2.53;;;1.43;;
11267;SDS011;49397;47.474;9.416;2023-08-06T11:27:26;1.00;;;1.00;;
11267;SDS011;49397;47.474;9.416;2023-08-06T11:29:53;1.10;;;1.10;;
11267;SDS011;49397;47.474;9.416;2023-08-06T11:32:18;1.33;;;1.33;;
11267;SDS011;49397;47.474;9.416;2023-08-06T11:34:44;1.20;;;1.20;;
11267;SDS011;49397;47.474;9.416;2023-08-06T11:37:09;1.10;;;1.10;;
11267;SDS011;49397;47.474;9.416;2023-08-06T11:39:36;1.20;;;1.20;;
11267;SDS011;49397;47.474;9.416;2023-08-06T11:42:02;1.43;;;1.43;;
11267;SDS011;49397;47.474;9.416;2023-08-06T11:44:30;1.27;;;1.27;;
11267;SDS011;49397;47.474;9.416;2023-08-06T11:46:59;1.10;;;1.10;;
11267;SDS011;49397;47.474;9.416;2023-08-06T11:52:14;1.37;;;1.37;;
11267;SDS011;49397;47.474;9.416;2023-08-06T11:54:45;1.10;;;1.10;;
11267;SDS011;49397;47.474;9.416;2023-08-06T11:57:31;1.17;;;1.17;;
11267;SDS011;49397;47.474;9.416;2023-08-06T12:00:09;1.30;;;1.30;;
11267;SDS011;49397;47.474;9.416;2023-08-06T12:02:38;1.30;;;1.30;;
11267;SDS011;49397;47.474;9.416;2023-08-06T12:05:09;1.30;;;1.30;;
11267;SDS011;49397;47.474;9.416;2023-08-06T12:07:40;1.83;;;1.30;;
11267;SDS011;49397;47.474;9.416;2023-08-06T12:10:07;1.27;;;1.27;;
11267;SDS011;49397;47.474;9.416;2023-08-06T12:12:33;1.20;;;1.20;;
11267;SDS011;49397;47.474;9.416;2023-08-06T12:14:59;1.10;;;1.10;;
11267;SDS011;49397;47.474;9.416;2023-08-06T12:17:24;1.43;;;1.43;;
11267;SDS011;49397;47.474;9.416;2023-08-06T12:19:50;1.17;;;1.17;;
11267;SDS011;49397;47.474;9.416;2023-08-06T12:22:15;1.37;;;1.37;;
11267;SDS011;49397;47.474;9.416;2023-08-06T12:24:45;1.53;;;1.53;;
11267;SDS011;49397;47.474;9.416;2023-08-06T12:27:11;1.83;;;1.30;;
11267;SDS011;49397;47.474;9.416;2023-08-06T12:29:40;1.50;;;1.40;;
11267;SDS011;49397;47.474;9.416;2023-08-06T12:32:06;1.37;;;1.27;;
11267;SDS011;49397;47.474;9.416;2023-08-06T12:34:32;1.20;;;1.20;;
11267;SDS011;49397;47.474;9.416;2023-08-06T12:36:57;1.20;;;1.20;;
11267;SDS011;49397;47.474;9.416;2023-08-06T12:39:22;2.00;;;1.50;;
11267;SDS011;49397;47.474;9.416;2023-08-06T12:41:48;1.30;;;1.30;;
11267;SDS011;49397;47.474;9.416;2023-08-06T12:44:14;1.20;;;1.20;;
11267;SDS011;49397;47.474;9.416;2023-08-06T12:46:39;1.13;;;1.13;;
11267;SDS011;49397;47.474;9.416;2023-08-06T12:49:04;1.40;;;1.30;;
11267;SDS011;49397;47.474;9.416;2023-08-06T12:51:30;1.50;;;1.50;;
11267;SDS011;49397;47.474;9.416;2023-08-06T12:53:56;1.13;;;1.13;;
11267;SDS011;49397;47.474;9.416;2023-08-06T12:56:21;1.40;;;1.40;;
11267;SDS011;49397;47.474;9.416;2023-08-06T12:58:47;3.23;;;3.03;;
11267;SDS011;49397;47.474;9.416;2023-08-06T13:01:12;1.30;;;1.30;;
11267;SDS011;49397;47.474;9.416;2023-08-06T13:03:37;1.13;;;1.13;;
11267;SDS011;49397;47.474;9.416;2023-08-06T13:06:03;1.67;;;1.50;;
11267;SDS011;49397;47.474;9.416;2023-08-06T13:08:28;1.17;;;1.17;;
11267;SDS011;49397;47.474;9.416;2023-08-06T13:10:54;1.37;;;1.37;;
11267;SDS011;49397;47.474;9.416;2023-08-06T13:13:19;1.20;;;1.20;;
11267;SDS011;49397;47.474;9.416;2023-08-06T13:15:44;1.20;;;1.20;;
11267;SDS011;49397;47.474;9.416;2023-08-06T13:18:10;1.40;;;1.40;;
11267;SDS011;49397;47.474;9.416;2023-08-06T13:20:37;1.47;;;1.40;;
11267;SDS011;49397;47.474;9.416;2023-08-06T13:23:04;1.57;;;1.47;;
11267;SDS011;49397;47.474;9.416;2023-08-06T13:25:30;2.37;;;1.40;;
11267;SDS011;49397;47.474;9.416;2023-08-06T13:27:55;1.20;;;1.20;;
11267;SDS011;49397;47.474;9.416;2023-08-06T13:30:20;1.10;;;1.10;;
11267;SDS011;49397;47.474;9.416;2023-08-06T13:32:48;1.53;;;1.30;;
11267;SDS011;49397;47.474;9.416;2023-08-06T13:35:13;2.27;;;1.87;;
11267;SDS011;49397;47.474;9.416;2023-08-06T13:37:39;1.43;;;1.43;;
11267;SDS011;49397;47.474;9.416;2023-08-06T13:40:04;1.20;;;1.20;;
11267;SDS011;49397;47.474;9.416;2023-08-06T13:42:31;1.40;;;1.40;;
11267;SDS011;49397;47.474;9.416;2023-08-06T13:44:57;1.40;;;1.30;;
11267;SDS011;49397;47.474;9.416;2023-08-06T13:47:27;1.20;;;1.20;;
11267;SDS011;49397;47.474;9.416;2023-08-06T13:49:53;1.30;;;1.30;;
11267;SDS011;49397;47.474;9.416;2023-08-06T13:52:18;1.43;;;1.43;;
11267;SDS011;49397;47.474;9.416;2023-08-06T13:54:44;1.17;;;1.17;;
11267;SDS011;49397;47.474;9.416;2023-08-06T13:57:09;1.40;;;1.30;;
11267;SDS011;49397;47.474;9.416;2023-08-06T13:59:34;1.20;;;1.20;;
11267;SDS011;49397;47.474;9.416;2023-08-06T14:02:00;1.10;;;1.10;;
11267;SDS011;49397;47.474;9.416;2023-08-06T14:04:25;1.40;;;1.30;;
11267;SDS011;49397;47.474;9.416;2023-08-06T14:06:51;1.60;;;1.50;;
11267;SDS011;49397;47.474;9.416;2023-08-06T14:09:16;1.30;;;1.30;;
11267;SDS011;49397;47.474;9.416;2023-08-06T14:11:43;1.10;;;1.10;;
11267;SDS011;49397;47.474;9.416;2023-08-06T14:14:10;1.27;;;1.27;;
11267;SDS011;49397;47.474;9.416;2023-08-06T14:16:36;2.60;;;1.30;;
11267;SDS011;49397;47.474;9.416;2023-08-06T14:19:01;1.67;;;1.57;;
11267;SDS011;49397;47.474;9.416;2023-08-06T14:21:27;2.30;;;1.60;;
11267;SDS011;49397;47.474;9.416;2023-08-06T14:23:53;1.33;;;1.23;;
11267;SDS011;49397;47.474;9.416;2023-08-06T14:26:18;1.33;;;1.23;;
11267;SDS011;49397;47.474;9.416;2023-08-06T14:28:43;1.50;;;1.40;;
11267;SDS011;49397;47.474;9.416;2023-08-06T14:31:09;1.47;;;1.47;;
11267;SDS011;49397;47.474;9.416;2023-08-06T14:33:34;3.73;;;1.40;;
11267;SDS011;49397;47.474;9.416;2023-08-06T14:35:59;1.70;;;1.60;;
11267;SDS011;49397;47.474;9.416;2023-08-06T14:38:25;1.40;;;1.30;;
11267;SDS011;49397;47.474;9.416;2023-08-06T14:40:50;2.50;;;1.60;;
11267;SDS011;49397;47.474;9.416;2023-08-06T14:43:16;1.40;;;1.40;;
11267;SDS011;49397;47.474;9.416;2023-08-06T14:45:41;1.60;;;1.50;;
11267;SDS011;49397;47.474;9.416;2023-08-06T14:48:07;1.43;;;1.40;;
11267;SDS011;49397;47.474;9.416;2023-08-06T14:50:32;2.73;;;1.93;;
11267;SDS011;49397;47.474;9.416;2023-08-06T14:52:57;1.20;;;1.20;;
11267;SDS011;49397;47.474;9.416;2023-08-06T14:55:27;1.80;;;1.43;;
11267;SDS011;49397;47.474;9.416;2023-08-06T14:57:52;1.90;;;1.60;;
11267;SDS011;49397;47.474;9.416;2023-08-06T15:00:18;1.70;;;1.60;;
11267;SDS011;49397;47.474;9.416;2023-08-06T15:02:44;1.77;;;1.67;;
11267;SDS011;49397;47.474;9.416;2023-08-06T15:05:10;1.67;;;1.57;;
11267;SDS011;49397;47.474;9.416;2023-08-06T15:07:35;5.13;;;1.67;;